sensor_id;sensor_type;location;lat;lon;timestamp;P1;durP1;ratioP1;P2;durP2;ratioP2
24801;SDS011;12898;50.520;12.152;2022-11-20T00:01:23;42.77;;;21.47;;
24801;SDS011;12898;50.520;12.152;2022-11-20T00:03:51;41.27;;;20.70;;
24801;SDS011;12898;50.520;12.152;2022-11-20T00:06:18;45.53;;;22.93;;
24801;SDS011;12898;50.520;12.152;2022-11-20T00:08:45;45.20;;;23.30;;
24801;SDS011;12898;50.520;12.152;2022-11-20T00:11:13;47.40;;;23.03;;
24801;SDS011;12898;50.520;12.152;2022-11-20T00:13:45;40.67;;;21.83;;
24801;SDS011;12898;50.520;12.152;2022-11-20T00:16:15;43.53;;;21.90;;
24801;SDS011;12898;50.520;12.152;2022-11-20T00:18:44;41.73;;;21.77;;
24801;SDS011;12898;50.520;12.152;2022-11-20T00:23:49;38.63;;;19.67;;
24801;SDS011;12898;50.520;12.152;2022-11-20T00:26:17;38.37;;;19.57;;
24801;SDS011;12898;50.520;12.152;2022-11-20T00:28:51;42.80;;;18.70;;
24801;SDS011;12898;50.520;12.152;2022-11-20T00:31:20;36.07;;;18.37;;
24801;SDS011;12898;50.520;12.152;2022-11-20T00:33:46;39.50;;;18.43;;
24801;SDS011;12898;50.520;12.152;2022-11-20T00:36:16;37.87;;;17.97;;
24801;SDS011;12898;50.520;12.152;2022-11-20T00:38:50;34.03;;;16.37;;
24801;SDS011;12898;50.520;12.152;2022-11-20T00:41:18;36.90;;;18.00;;
24801;SDS011;12898;50.520;12.152;2022-11-20T00:43:48;33.73;;;16.33;;
24801;SDS011;12898;50.520;12.152;2022-11-20T00:46:14;36.23;;;18.10;;
24801;SDS011;12898;50.520;12.152;2022-11-20T00:48:43;34.17;;;17.20;;
24801;SDS011;12898;50.520;12.152;2022-11-20T00:51:10;38.57;;;17.27;;
24801;SDS011;12898;50.520;12.152;2022-11-20T00:53:39;35.27;;;16.87;;
24801;SDS011;12898;50.520;12.152;2022-11-20T00:56:10;37.67;;;16.33;;
24801;SDS011;12898;50.520;12.152;2022-11-20T00:58:38;40.50;;;18.63;;
24801;SDS011;12898;50.520;12.152;2022-11-20T01:01:08;34.80;;;16.43;;
24801;SDS011;12898;50.520;12.152;2022-11-20T01:03:40;33.70;;;16.43;;
24801;SDS011;12898;50.520;12.152;2022-11-20T01:06:29;32.73;;;16.67;;
24801;SDS011;12898;50.520;12.152;2022-11-20T01:08:58;34.97;;;15.60;;
24801;SDS011;12898;50.520;12.152;2022-11-20T01:11:37;33.90;;;16.47;;
24801;SDS011;12898;50.520;12.152;2022-11-20T01:14:07;30.93;;;15.97;;
24801;SDS011;12898;50.520;12.152;2022-11-20T01:16:40;33.23;;;15.73;;
24801;SDS011;12898;50.520;12.152;2022-11-20T01:19:16;31.73;;;16.07;;
24801;SDS011;12898;50.520;12.152;2022-11-20T01:21:45;30.57;;;14.93;;
24801;SDS011;12898;50.520;12.152;2022-11-20T01:24:15;31.90;;;14.27;;
24801;SDS011;12898;50.520;12.152;2022-11-20T01:26:43;32.27;;;14.00;;
24801;SDS011;12898;50.520;12.152;2022-11-20T01:29:12;35.03;;;14.93;;
24801;SDS011;12898;50.520;12.152;2022-11-20T01:31:41;27.37;;;13.37;;
24801;SDS011;12898;50.520;12.152;2022-11-20T01:34:09;29.33;;;14.10;;
24801;SDS011;12898;50.520;12.152;2022-11-20T01:36:39;29.27;;;14.33;;
24801;SDS011;12898;50.520;12.152;2022-11-20T01:39:07;28.67;;;13.57;;
24801;SDS011;12898;50.520;12.152;2022-11-20T01:41:38;30.03;;;14.93;;
24801;SDS011;12898;50.520;12.152;2022-11-20T01:47:14;32.57;;;14.97;;
24801;SDS011;12898;50.520;12.152;2022-11-20T01:50:16;29.87;;;14.33;;
24801;SDS011;12898;50.520;12.152;2022-11-20T01:52:53;29.53;;;13.10;;
24801;SDS011;12898;50.520;12.152;2022-11-20T01:55:28;30.17;;;13.73;;
24801;SDS011;12898;50.520;12.152;2022-11-20T01:58:05;27.63;;;13.20;;
24801;SDS011;12898;50.520;12.152;2022-11-20T02:00:31;31.00;;;13.23;;
24801;SDS011;12898;50.520;12.152;2022-11-20T02:02:58;31.13;;;13.57;;
24801;SDS011;12898;50.520;12.152;2022-11-20T02:05:31;28.93;;;14.23;;
24801;SDS011;12898;50.520;12.152;2022-11-20T02:08:01;30.30;;;14.30;;
24801;SDS011;12898;50.520;12.152;2022-11-20T02:10:29;31.07;;;14.97;;
24801;SDS011;12898;50.520;12.152;2022-11-20T02:12:56;30.47;;;13.47;;
24801;SDS011;12898;50.520;12.152;2022-11-20T02:15:41;31.83;;;14.97;;
24801;SDS011;12898;50.520;12.152;2022-11-20T02:18:09;27.73;;;14.07;;
24801;SDS011;12898;50.520;12.152;2022-11-20T02:20:36;32.53;;;14.87;;
24801;SDS011;12898;50.520;12.152;2022-11-20T02:23:04;35.27;;;16.03;;
24801;SDS011;12898;50.520;12.152;2022-11-20T02:25:56;33.00;;;14.83;;
24801;SDS011;12898;50.520;12.152;2022-11-20T02:28:22;28.80;;;14.80;;
24801;SDS011;12898;50.520;12.152;2022-11-20T02:30:48;29.07;;;14.07;;
24801;SDS011;12898;50.520;12.152;2022-11-20T02:33:14;32.30;;;14.47;;
24801;SDS011;12898;50.520;12.152;2022-11-20T02:35:41;29.23;;;13.50;;
24801;SDS011;12898;50.520;12.152;2022-11-20T02:38:09;29.50;;;14.30;;
24801;SDS011;12898;50.520;12.152;2022-11-20T02:40:35;32.13;;;14.73;;
24801;SDS011;12898;50.520;12.152;2022-11-20T02:43:01;31.57;;;14.60;;
24801;SDS011;12898;50.520;12.152;2022-11-20T02:45:27;33.37;;;15.63;;
24801;SDS011;12898;50.520;12.152;2022-11-20T02:47:53;32.50;;;14.63;;
24801;SDS011;12898;50.520;12.152;2022-11-20T02:50:19;29.63;;;15.70;;
24801;SDS011;12898;50.520;12.152;2022-11-20T02:52:45;31.60;;;16.33;;
24801;SDS011;12898;50.520;12.152;2022-11-20T02:55:11;34.13;;;16.60;;
24801;SDS011;12898;50.520;12.152;2022-11-20T02:57:37;34.50;;;16.77;;
24801;SDS011;12898;50.520;12.152;2022-11-20T03:00:03;35.27;;;17.83;;
24801;SDS011;12898;50.520;12.152;2022-11-20T03:02:31;34.37;;;16.70;;
24801;SDS011;12898;50.520;12.152;2022-11-20T03:04:58;31.73;;;16.30;;
24801;SDS011;12898;50.520;12.152;2022-11-20T03:07:24;36.77;;;17.57;;
24801;SDS011;12898;50.520;12.152;2022-11-20T03:09:50;31.90;;;16.97;;
24801;SDS011;12898;50.520;12.152;2022-11-20T03:12:16;28.53;;;15.00;;
24801;SDS011;12898;50.520;12.152;2022-11-20T03:14:41;32.00;;;13.97;;
24801;SDS011;12898;50.520;12.152;2022-11-20T03:17:07;27.30;;;14.47;;
24801;SDS011;12898;50.520;12.152;2022-11-20T03:19:33;32.67;;;15.40;;
24801;SDS011;12898;50.520;12.152;2022-11-20T03:21:59;28.33;;;14.07;;
24801;SDS011;12898;50.520;12.152;2022-11-20T03:24:25;28.10;;;13.97;;
24801;SDS011;12898;50.520;12.152;2022-11-20T03:26:51;25.10;;;13.17;;
24801;SDS011;12898;50.520;12.152;2022-11-20T03:29:16;26.03;;;13.13;;
24801;SDS011;12898;50.520;12.152;2022-11-20T03:31:42;23.87;;;12.47;;
24801;SDS011;12898;50.520;12.152;2022-11-20T03:34:09;27.17;;;13.70;;
24801;SDS011;12898;50.520;12.152;2022-11-20T03:36:39;26.67;;;12.57;;
24801;SDS011;12898;50.520;12.152;2022-11-20T03:39:07;29.07;;;14.93;;
24801;SDS011;12898;50.520;12.152;2022-11-20T03:41:40;29.87;;;15.23;;
24801;SDS011;12898;50.520;12.152;2022-11-20T03:44:08;30.97;;;16.03;;
24801;SDS011;12898;50.520;12.152;2022-11-20T03:46:35;29.27;;;15.00;;
24801;SDS011;12898;50.520;12.152;2022-11-20T03:49:01;29.43;;;15.23;;
24801;SDS011;12898;50.520;12.152;2022-11-20T03:51:31;34.37;;;16.57;;
24801;SDS011;12898;50.520;12.152;2022-11-20T03:54:00;29.30;;;14.83;;
24801;SDS011;12898;50.520;12.152;2022-11-20T03:56:30;26.03;;;13.77;;
24801;SDS011;12898;50.520;12.152;2022-11-20T03:59:00;26.47;;;13.57;;
24801;SDS011;12898;50.520;12.152;2022-11-20T04:01:28;25.07;;;12.57;;
24801;SDS011;12898;50.520;12.152;2022-11-20T04:03:57;28.37;;;13.47;;
24801;SDS011;12898;50.520;12.152;2022-11-20T04:06:24;23.50;;;12.17;;
24801;SDS011;12898;50.520;12.152;2022-11-20T04:08:55;25.03;;;12.57;;
24801;SDS011;12898;50.520;12.152;2022-11-20T04:11:25;23.10;;;11.97;;
24801;SDS011;12898;50.520;12.152;2022-11-20T04:13:54;22.97;;;11.37;;
24801;SDS011;12898;50.520;12.152;2022-11-20T04:16:23;25.23;;;13.70;;
24801;SDS011;12898;50.520;12.152;2022-11-20T04:18:54;25.77;;;13.27;;
24801;SDS011;12898;50.520;12.152;2022-11-20T04:21:24;29.23;;;14.13;;
24801;SDS011;12898;50.520;12.152;2022-11-20T04:23:51;24.63;;;12.80;;
24801;SDS011;12898;50.520;12.152;2022-11-20T04:26:20;24.47;;;11.83;;
24801;SDS011;12898;50.520;12.152;2022-11-20T04:28:48;24.60;;;11.60;;
24801;SDS011;12898;50.520;12.152;2022-11-20T04:31:15;26.10;;;12.10;;
24801;SDS011;12898;50.520;12.152;2022-11-20T04:33:43;25.77;;;12.93;;
24801;SDS011;12898;50.520;12.152;2022-11-20T04:36:16;24.40;;;11.67;;
24801;SDS011;12898;50.520;12.152;2022-11-20T04:38:45;24.80;;;12.33;;
24801;SDS011;12898;50.520;12.152;2022-11-20T04:41:17;28.50;;;13.87;;
24801;SDS011;12898;50.520;12.152;2022-11-20T04:43:48;28.37;;;12.93;;
24801;SDS011;12898;50.520;12.152;2022-11-20T04:46:17;25.77;;;12.93;;
24801;SDS011;12898;50.520;12.152;2022-11-20T04:48:43;25.10;;;12.37;;
24801;SDS011;12898;50.520;12.152;2022-11-20T04:51:09;25.87;;;12.23;;
24801;SDS011;12898;50.520;12.152;2022-11-20T04:53:35;26.07;;;11.97;;
24801;SDS011;12898;50.520;12.152;2022-11-20T04:56:05;24.40;;;11.93;;
24801;SDS011;12898;50.520;12.152;2022-11-20T04:58:34;27.07;;;12.77;;
24801;SDS011;12898;50.520;12.152;2022-11-20T05:01:00;29.77;;;13.13;;
24801;SDS011;12898;50.520;12.152;2022-11-20T05:03:31;27.20;;;12.70;;
24801;SDS011;12898;50.520;12.152;2022-11-20T05:06:04;26.30;;;12.70;;
24801;SDS011;12898;50.520;12.152;2022-11-20T05:08:31;25.33;;;12.17;;
24801;SDS011;12898;50.520;12.152;2022-11-20T05:11:05;26.33;;;12.40;;
24801;SDS011;12898;50.520;12.152;2022-11-20T05:13:31;27.57;;;12.77;;
24801;SDS011;12898;50.520;12.152;2022-11-20T05:16:03;30.20;;;12.60;;
24801;SDS011;12898;50.520;12.152;2022-11-20T05:18:43;27.37;;;12.00;;
24801;SDS011;12898;50.520;12.152;2022-11-20T05:21:09;24.93;;;12.17;;
24801;SDS011;12898;50.520;12.152;2022-11-20T05:23:36;26.53;;;12.57;;
24801;SDS011;12898;50.520;12.152;2022-11-20T05:26:03;27.10;;;13.17;;
24801;SDS011;12898;50.520;12.152;2022-11-20T05:28:30;28.67;;;13.13;;
24801;SDS011;12898;50.520;12.152;2022-11-20T05:31:03;24.87;;;12.07;;
24801;SDS011;12898;50.520;12.152;2022-11-20T05:33:32;27.53;;;12.77;;
24801;SDS011;12898;50.520;12.152;2022-11-20T05:35:59;24.80;;;12.43;;
24801;SDS011;12898;50.520;12.152;2022-11-20T05:38:24;27.73;;;13.20;;
24801;SDS011;12898;50.520;12.152;2022-11-20T05:40:50;25.63;;;12.50;;
24801;SDS011;12898;50.520;12.152;2022-11-20T05:43:15;30.60;;;13.60;;
24801;SDS011;12898;50.520;12.152;2022-11-20T05:45:41;28.30;;;13.27;;
24801;SDS011;12898;50.520;12.152;2022-11-20T05:48:07;25.63;;;12.33;;
24801;SDS011;12898;50.520;12.152;2022-11-20T05:50:32;26.43;;;13.20;;
24801;SDS011;12898;50.520;12.152;2022-11-20T05:52:58;27.53;;;13.10;;
24801;SDS011;12898;50.520;12.152;2022-11-20T05:55:25;27.13;;;13.13;;
24801;SDS011;12898;50.520;12.152;2022-11-20T05:57:53;25.60;;;11.73;;
24801;SDS011;12898;50.520;12.152;2022-11-20T06:00:19;27.40;;;12.27;;
24801;SDS011;12898;50.520;12.152;2022-11-20T06:02:45;25.43;;;12.17;;
24801;SDS011;12898;50.520;12.152;2022-11-20T06:05:11;25.53;;;12.67;;
24801;SDS011;12898;50.520;12.152;2022-11-20T06:07:37;23.47;;;11.43;;
24801;SDS011;12898;50.520;12.152;2022-11-20T06:10:02;26.33;;;12.53;;
24801;SDS011;12898;50.520;12.152;2022-11-20T06:12:30;25.57;;;12.30;;
24801;SDS011;12898;50.520;12.152;2022-11-20T06:14:57;27.13;;;13.07;;
24801;SDS011;12898;50.520;12.152;2022-11-20T06:17:24;25.30;;;11.17;;
24801;SDS011;12898;50.520;12.152;2022-11-20T06:19:49;25.73;;;13.37;;
24801;SDS011;12898;50.520;12.152;2022-11-20T06:22:15;22.57;;;11.73;;
24801;SDS011;12898;50.520;12.152;2022-11-20T06:24:41;26.67;;;12.80;;
24801;SDS011;12898;50.520;12.152;2022-11-20T06:27:06;25.60;;;12.00;;
24801;SDS011;12898;50.520;12.152;2022-11-20T06:29:32;25.93;;;12.40;;
24801;SDS011;12898;50.520;12.152;2022-11-20T06:31:57;24.37;;;11.77;;
24801;SDS011;12898;50.520;12.152;2022-11-20T06:34:23;26.43;;;13.07;;
24801;SDS011;12898;50.520;12.152;2022-11-20T06:36:49;27.87;;;12.73;;
24801;SDS011;12898;50.520;12.152;2022-11-20T06:39:14;27.07;;;12.90;;
24801;SDS011;12898;50.520;12.152;2022-11-20T06:41:40;30.80;;;13.50;;
24801;SDS011;12898;50.520;12.152;2022-11-20T06:44:06;29.03;;;13.60;;
24801;SDS011;12898;50.520;12.152;2022-11-20T06:46:31;29.87;;;13.97;;
24801;SDS011;12898;50.520;12.152;2022-11-20T06:48:57;29.57;;;12.97;;
24801;SDS011;12898;50.520;12.152;2022-11-20T06:51:23;31.97;;;15.50;;
24801;SDS011;12898;50.520;12.152;2022-11-20T06:53:49;31.13;;;14.03;;
24801;SDS011;12898;50.520;12.152;2022-11-20T06:56:15;28.50;;;13.73;;
24801;SDS011;12898;50.520;12.152;2022-11-20T06:58:40;28.97;;;14.43;;
24801;SDS011;12898;50.520;12.152;2022-11-20T07:01:07;30.93;;;14.67;;
24801;SDS011;12898;50.520;12.152;2022-11-20T07:03:36;28.37;;;14.47;;
24801;SDS011;12898;50.520;12.152;2022-11-20T07:06:02;28.90;;;13.47;;
24801;SDS011;12898;50.520;12.152;2022-11-20T07:08:28;26.10;;;13.30;;
24801;SDS011;12898;50.520;12.152;2022-11-20T07:10:58;26.03;;;13.60;;
24801;SDS011;12898;50.520;12.152;2022-11-20T07:13:31;29.43;;;14.73;;
24801;SDS011;12898;50.520;12.152;2022-11-20T07:16:04;32.47;;;15.07;;
24801;SDS011;12898;50.520;12.152;2022-11-20T07:18:32;25.20;;;13.30;;
24801;SDS011;12898;50.520;12.152;2022-11-20T07:21:06;30.70;;;13.97;;
24801;SDS011;12898;50.520;12.152;2022-11-20T07:23:33;25.87;;;11.77;;
24801;SDS011;12898;50.520;12.152;2022-11-20T07:26:06;25.07;;;12.57;;
24801;SDS011;12898;50.520;12.152;2022-11-20T07:28:34;22.27;;;11.63;;
24801;SDS011;12898;50.520;12.152;2022-11-20T07:31:00;24.30;;;12.27;;
24801;SDS011;12898;50.520;12.152;2022-11-20T07:33:26;26.43;;;12.10;;
24801;SDS011;12898;50.520;12.152;2022-11-20T07:35:52;24.70;;;12.03;;
24801;SDS011;12898;50.520;12.152;2022-11-20T07:38:18;22.73;;;11.03;;
24801;SDS011;12898;50.520;12.152;2022-11-20T07:40:43;26.73;;;12.03;;
24801;SDS011;12898;50.520;12.152;2022-11-20T07:43:09;25.07;;;12.27;;
24801;SDS011;12898;50.520;12.152;2022-11-20T07:45:35;25.83;;;11.97;;
24801;SDS011;12898;50.520;12.152;2022-11-20T07:48:01;22.87;;;11.60;;
24801;SDS011;12898;50.520;12.152;2022-11-20T07:50:27;24.47;;;10.77;;
24801;SDS011;12898;50.520;12.152;2022-11-20T07:52:59;25.17;;;12.43;;
24801;SDS011;12898;50.520;12.152;2022-11-20T07:55:27;25.60;;;12.40;;
24801;SDS011;12898;50.520;12.152;2022-11-20T07:57:56;52.70;;;28.67;;
24801;SDS011;12898;50.520;12.152;2022-11-20T08:00:22;114.43;;;55.40;;
24801;SDS011;12898;50.520;12.152;2022-11-20T08:02:48;83.27;;;42.43;;
24801;SDS011;12898;50.520;12.152;2022-11-20T08:05:14;40.10;;;20.97;;
24801;SDS011;12898;50.520;12.152;2022-11-20T08:07:40;41.20;;;22.97;;
24801;SDS011;12898;50.520;12.152;2022-11-20T08:10:08;32.23;;;15.33;;
24801;SDS011;12898;50.520;12.152;2022-11-20T08:12:42;29.43;;;15.70;;
24801;SDS011;12898;50.520;12.152;2022-11-20T08:15:48;31.43;;;14.13;;
24801;SDS011;12898;50.520;12.152;2022-11-20T08:18:15;27.17;;;12.57;;
24801;SDS011;12898;50.520;12.152;2022-11-20T08:20:42;25.93;;;13.00;;
24801;SDS011;12898;50.520;12.152;2022-11-20T08:23:08;27.60;;;14.03;;
24801;SDS011;12898;50.520;12.152;2022-11-20T08:25:35;24.17;;;12.47;;
24801;SDS011;12898;50.520;12.152;2022-11-20T08:28:03;28.20;;;14.37;;
24801;SDS011;12898;50.520;12.152;2022-11-20T08:30:32;30.30;;;14.63;;
24801;SDS011;12898;50.520;12.152;2022-11-20T08:33:06;33.80;;;15.90;;
24801;SDS011;12898;50.520;12.152;2022-11-20T08:35:37;28.43;;;14.80;;
24801;SDS011;12898;50.520;12.152;2022-11-20T08:38:03;28.77;;;14.20;;
24801;SDS011;12898;50.520;12.152;2022-11-20T08:40:30;30.60;;;14.90;;
24801;SDS011;12898;50.520;12.152;2022-11-20T08:42:56;30.20;;;14.70;;
24801;SDS011;12898;50.520;12.152;2022-11-20T08:45:22;29.97;;;14.97;;
24801;SDS011;12898;50.520;12.152;2022-11-20T08:47:48;30.03;;;15.23;;
24801;SDS011;12898;50.520;12.152;2022-11-20T08:50:15;28.97;;;14.50;;
24801;SDS011;12898;50.520;12.152;2022-11-20T08:52:41;25.90;;;13.27;;
24801;SDS011;12898;50.520;12.152;2022-11-20T08:55:07;34.27;;;15.53;;
24801;SDS011;12898;50.520;12.152;2022-11-20T08:57:35;29.40;;;14.23;;
24801;SDS011;12898;50.520;12.152;2022-11-20T09:00:01;33.90;;;15.43;;
24801;SDS011;12898;50.520;12.152;2022-11-20T09:02:29;31.10;;;15.27;;
24801;SDS011;12898;50.520;12.152;2022-11-20T09:04:55;35.30;;;16.73;;
24801;SDS011;12898;50.520;12.152;2022-11-20T09:07:21;30.67;;;15.87;;
24801;SDS011;12898;50.520;12.152;2022-11-20T09:09:47;32.43;;;16.30;;
24801;SDS011;12898;50.520;12.152;2022-11-20T09:12:13;30.57;;;15.67;;
24801;SDS011;12898;50.520;12.152;2022-11-20T09:14:38;31.23;;;15.97;;
24801;SDS011;12898;50.520;12.152;2022-11-20T09:17:04;33.03;;;15.93;;
24801;SDS011;12898;50.520;12.152;2022-11-20T09:19:30;32.83;;;16.80;;
24801;SDS011;12898;50.520;12.152;2022-11-20T09:21:55;30.60;;;15.43;;
24801;SDS011;12898;50.520;12.152;2022-11-20T09:24:22;37.93;;;20.70;;
24801;SDS011;12898;50.520;12.152;2022-11-20T09:26:48;33.27;;;18.30;;
24801;SDS011;12898;50.520;12.152;2022-11-20T09:29:14;28.80;;;15.60;;
24801;SDS011;12898;50.520;12.152;2022-11-20T09:31:39;29.57;;;14.07;;
24801;SDS011;12898;50.520;12.152;2022-11-20T09:34:05;35.33;;;16.03;;
24801;SDS011;12898;50.520;12.152;2022-11-20T09:36:31;30.47;;;14.80;;
24801;SDS011;12898;50.520;12.152;2022-11-20T09:38:56;32.33;;;15.40;;
24801;SDS011;12898;50.520;12.152;2022-11-20T09:50:43;32.20;;;15.67;;
24801;SDS011;12898;50.520;12.152;2022-11-20T09:53:40;33.23;;;17.10;;
24801;SDS011;12898;50.520;12.152;2022-11-20T09:56:39;37.07;;;18.90;;
24801;SDS011;12898;50.520;12.152;2022-11-20T09:59:23;36.10;;;17.63;;
24801;SDS011;12898;50.520;12.152;2022-11-20T10:02:15;43.70;;;21.87;;
24801;SDS011;12898;50.520;12.152;2022-11-20T10:04:43;38.53;;;20.07;;
24801;SDS011;12898;50.520;12.152;2022-11-20T10:10:02;39.50;;;20.60;;
24801;SDS011;12898;50.520;12.152;2022-11-20T10:18:28;39.97;;;19.03;;
24801;SDS011;12898;50.520;12.152;2022-11-20T10:32:42;38.37;;;19.87;;
24801;SDS011;12898;50.520;12.152;2022-11-20T10:38:00;37.07;;;19.00;;
24801;SDS011;12898;50.520;12.152;2022-11-20T10:40:41;33.53;;;17.17;;
24801;SDS011;12898;50.520;12.152;2022-11-20T10:46:17;32.37;;;16.57;;
24801;SDS011;12898;50.520;12.152;2022-11-20T10:48:47;31.40;;;17.07;;
24801;SDS011;12898;50.520;12.152;2022-11-20T10:56:53;33.37;;;17.50;;
24801;SDS011;12898;50.520;12.152;2022-11-20T10:59:59;31.77;;;16.73;;
24801;SDS011;12898;50.520;12.152;2022-11-20T11:02:34;32.20;;;15.93;;
24801;SDS011;12898;50.520;12.152;2022-11-20T11:05:34;31.43;;;16.30;;
24801;SDS011;12898;50.520;12.152;2022-11-20T11:08:09;30.40;;;15.20;;
24801;SDS011;12898;50.520;12.152;2022-11-20T11:10:47;31.13;;;16.60;;
24801;SDS011;12898;50.520;12.152;2022-11-20T11:13:21;31.83;;;16.07;;
24801;SDS011;12898;50.520;12.152;2022-11-20T11:15:49;31.40;;;16.23;;
24801;SDS011;12898;50.520;12.152;2022-11-20T11:18:29;30.20;;;15.63;;
24801;SDS011;12898;50.520;12.152;2022-11-20T11:21:00;28.97;;;15.13;;
24801;SDS011;12898;50.520;12.152;2022-11-20T11:23:46;29.77;;;14.60;;
24801;SDS011;12898;50.520;12.152;2022-11-20T11:26:28;31.77;;;15.57;;
24801;SDS011;12898;50.520;12.152;2022-11-20T11:31:23;30.63;;;15.57;;
24801;SDS011;12898;50.520;12.152;2022-11-20T11:36:54;29.90;;;15.33;;
24801;SDS011;12898;50.520;12.152;2022-11-20T11:39:26;33.97;;;17.47;;
24801;SDS011;12898;50.520;12.152;2022-11-20T11:41:53;31.47;;;16.90;;
24801;SDS011;12898;50.520;12.152;2022-11-20T11:44:20;31.87;;;16.53;;
24801;SDS011;12898;50.520;12.152;2022-11-20T11:58:26;24.10;;;12.87;;
24801;SDS011;12898;50.520;12.152;2022-11-20T12:01:29;22.43;;;12.60;;
24801;SDS011;12898;50.520;12.152;2022-11-20T12:10:17;20.83;;;10.97;;
24801;SDS011;12898;50.520;12.152;2022-11-20T12:12:58;19.30;;;10.17;;
24801;SDS011;12898;50.520;12.152;2022-11-20T12:15:46;20.27;;;10.87;;
24801;SDS011;12898;50.520;12.152;2022-11-20T12:18:17;19.33;;;10.30;;
24801;SDS011;12898;50.520;12.152;2022-11-20T12:20:50;19.27;;;9.83;;
24801;SDS011;12898;50.520;12.152;2022-11-20T12:38:45;19.37;;;11.00;;
24801;SDS011;12898;50.520;12.152;2022-11-20T13:02:09;19.80;;;10.80;;
24801;SDS011;12898;50.520;12.152;2022-11-20T13:07:59;20.90;;;11.80;;
24801;SDS011;12898;50.520;12.152;2022-11-20T13:10:43;21.10;;;11.43;;
24801;SDS011;12898;50.520;12.152;2022-11-20T13:13:57;21.37;;;11.87;;
24801;SDS011;12898;50.520;12.152;2022-11-20T13:19:17;22.93;;;12.83;;
24801;SDS011;12898;50.520;12.152;2022-11-20T13:21:47;20.57;;;11.50;;
24801;SDS011;12898;50.520;12.152;2022-11-20T13:29:40;20.50;;;11.73;;
24801;SDS011;12898;50.520;12.152;2022-11-20T13:34:38;21.50;;;11.13;;
24801;SDS011;12898;50.520;12.152;2022-11-20T13:37:04;27.40;;;12.27;;
24801;SDS011;12898;50.520;12.152;2022-11-20T13:39:31;26.90;;;12.57;;
24801;SDS011;12898;50.520;12.152;2022-11-20T13:42:00;27.30;;;11.53;;
24801;SDS011;12898;50.520;12.152;2022-11-20T13:44:48;24.90;;;11.53;;
24801;SDS011;12898;50.520;12.152;2022-11-20T13:47:20;24.13;;;11.27;;
24801;SDS011;12898;50.520;12.152;2022-11-20T13:49:53;22.97;;;12.47;;
24801;SDS011;12898;50.520;12.152;2022-11-20T13:55:40;23.37;;;12.13;;
24801;SDS011;12898;50.520;12.152;2022-11-20T13:58:19;22.90;;;11.63;;
24801;SDS011;12898;50.520;12.152;2022-11-20T14:01:38;21.17;;;12.27;;
24801;SDS011;12898;50.520;12.152;2022-11-20T14:03:46;23.47;;;12.73;;
24801;SDS011;12898;50.520;12.152;2022-11-20T14:06:29;22.70;;;12.27;;
24801;SDS011;12898;50.520;12.152;2022-11-20T14:09:10;20.73;;;10.93;;
24801;SDS011;12898;50.520;12.152;2022-11-20T14:11:51;20.87;;;11.63;;
24801;SDS011;12898;50.520;12.152;2022-11-20T14:14:18;23.67;;;12.47;;
24801;SDS011;12898;50.520;12.152;2022-11-20T14:16:49;20.93;;;11.67;;
24801;SDS011;12898;50.520;12.152;2022-11-20T14:19:25;21.77;;;11.70;;
24801;SDS011;12898;50.520;12.152;2022-11-20T14:22:17;24.33;;;13.77;;
24801;SDS011;12898;50.520;12.152;2022-11-20T14:27:37;22.43;;;12.73;;
24801;SDS011;12898;50.520;12.152;2022-11-20T14:30:06;24.13;;;11.93;;
24801;SDS011;12898;50.520;12.152;2022-11-20T14:32:41;21.33;;;12.13;;
24801;SDS011;12898;50.520;12.152;2022-11-20T14:35:21;21.63;;;11.63;;
24801;SDS011;12898;50.520;12.152;2022-11-20T14:38:01;22.80;;;11.97;;
24801;SDS011;12898;50.520;12.152;2022-11-20T14:40:28;24.13;;;12.27;;
24801;SDS011;12898;50.520;12.152;2022-11-20T14:43:01;21.57;;;12.20;;
24801;SDS011;12898;50.520;12.152;2022-11-20T14:45:42;19.87;;;10.70;;
24801;SDS011;12898;50.520;12.152;2022-11-20T14:48:09;18.47;;;9.93;;
24801;SDS011;12898;50.520;12.152;2022-11-20T14:50:37;19.50;;;9.60;;
24801;SDS011;12898;50.520;12.152;2022-11-20T14:53:04;20.17;;;10.93;;
24801;SDS011;12898;50.520;12.152;2022-11-20T14:55:34;21.03;;;10.83;;
24801;SDS011;12898;50.520;12.152;2022-11-20T14:58:24;20.30;;;10.73;;
24801;SDS011;12898;50.520;12.152;2022-11-20T15:00:56;20.83;;;11.33;;
24801;SDS011;12898;50.520;12.152;2022-11-20T15:03:35;21.07;;;11.40;;
24801;SDS011;12898;50.520;12.152;2022-11-20T15:06:04;19.90;;;11.10;;
24801;SDS011;12898;50.520;12.152;2022-11-20T15:08:32;18.50;;;11.07;;
24801;SDS011;12898;50.520;12.152;2022-11-20T15:10:58;19.23;;;10.17;;
24801;SDS011;12898;50.520;12.152;2022-11-20T15:13:34;19.50;;;10.43;;
24801;SDS011;12898;50.520;12.152;2022-11-20T15:16:04;20.10;;;9.53;;
24801;SDS011;12898;50.520;12.152;2022-11-20T15:18:42;17.17;;;9.17;;
24801;SDS011;12898;50.520;12.152;2022-11-20T15:21:15;18.10;;;9.67;;
24801;SDS011;12898;50.520;12.152;2022-11-20T15:23:44;16.97;;;9.60;;
24801;SDS011;12898;50.520;12.152;2022-11-20T15:26:14;18.47;;;9.17;;
24801;SDS011;12898;50.520;12.152;2022-11-20T15:28:47;19.70;;;9.80;;
24801;SDS011;12898;50.520;12.152;2022-11-20T15:31:20;20.37;;;10.03;;
24801;SDS011;12898;50.520;12.152;2022-11-20T15:33:48;23.47;;;13.17;;
24801;SDS011;12898;50.520;12.152;2022-11-20T15:36:15;26.20;;;13.30;;
24801;SDS011;12898;50.520;12.152;2022-11-20T15:38:41;25.80;;;13.90;;
24801;SDS011;12898;50.520;12.152;2022-11-20T15:41:06;24.13;;;12.27;;
24801;SDS011;12898;50.520;12.152;2022-11-20T15:43:33;26.50;;;14.00;;
24801;SDS011;12898;50.520;12.152;2022-11-20T15:46:00;27.97;;;14.07;;
24801;SDS011;12898;50.520;12.152;2022-11-20T15:48:36;27.03;;;14.23;;
24801;SDS011;12898;50.520;12.152;2022-11-20T15:53:36;22.00;;;12.67;;
24801;SDS011;12898;50.520;12.152;2022-11-20T15:56:02;21.17;;;12.47;;
24801;SDS011;12898;50.520;12.152;2022-11-20T15:58:29;19.40;;;10.97;;
24801;SDS011;12898;50.520;12.152;2022-11-20T16:00:55;21.20;;;11.67;;
24801;SDS011;12898;50.520;12.152;2022-11-20T16:03:21;21.33;;;11.77;;
24801;SDS011;12898;50.520;12.152;2022-11-20T16:05:47;21.57;;;12.40;;
24801;SDS011;12898;50.520;12.152;2022-11-20T16:08:13;22.37;;;12.73;;
24801;SDS011;12898;50.520;12.152;2022-11-20T16:10:39;22.40;;;12.73;;
24801;SDS011;12898;50.520;12.152;2022-11-20T16:13:20;23.20;;;12.60;;
24801;SDS011;12898;50.520;12.152;2022-11-20T16:16:11;17.60;;;9.00;;
24801;SDS011;12898;50.520;12.152;2022-11-20T16:18:55;18.87;;;9.50;;
24801;SDS011;12898;50.520;12.152;2022-11-20T16:21:22;16.80;;;8.40;;
24801;SDS011;12898;50.520;12.152;2022-11-20T16:23:56;16.20;;;8.97;;
24801;SDS011;12898;50.520;12.152;2022-11-20T16:26:30;14.63;;;7.43;;
24801;SDS011;12898;50.520;12.152;2022-11-20T16:29:01;18.40;;;9.27;;
24801;SDS011;12898;50.520;12.152;2022-11-20T16:31:28;16.27;;;8.63;;
24801;SDS011;12898;50.520;12.152;2022-11-20T16:33:55;14.30;;;7.23;;
24801;SDS011;12898;50.520;12.152;2022-11-20T16:36:23;15.43;;;7.13;;